Time;durP1;ratioP1;P1;durP2;ratioP2;P2;SDS_P1;SDS_P2;PMS_P1;PMS_P2;Temp;Humidity;BMP_temperature;BMP_pressure;BME280_temperature;BME280_humidity;BME280_pressure;Samples;Min_cycle;Max_cycle;Signal;HPM_P1;HPM_P2
2020/12/09 00:00:10;;;;;;;22.00;13.07;;;5.30;99.90;;;4.85;92.04;100784.16;4760716;30;20048;-90
2020/12/09 00:02:41;;;;;;;20.67;12.43;;;5.30;99.90;;;4.84;92.12;100787.84;4764613;30;20096;-89
2020/12/09 00:05:12;;;;;;;20.85;13.15;;;5.80;99.90;;;4.79;92.50;100792.88;4753804;30;20089;-91
2020/12/09 00:07:38;;;;;;;23.63;12.70;;;5.50;99.90;;;4.75;92.66;100800.44;4746723;30;20492;-92
2020/12/09 00:10:07;;;;;;;20.35;13.30;;;5.20;99.90;;;4.65;92.35;100797.88;4731577;30;20480;-90
2020/12/09 00:12:34;;;;;;;20.58;12.60;;;5.10;99.90;;;4.61;92.28;100799.25;4744788;30;20074;-90
2020/12/09 00:15:01;;;;;;;22.23;14.30;;;5.10;99.90;;;4.55;92.61;100805.25;4744495;30;20044;-91
2020/12/09 00:17:31;;;;;;;19.08;11.57;;;5.10;99.90;;;4.46;92.98;100798.16;4759783;30;20040;-91
2020/12/09 00:19:57;;;;;;;20.52;12.60;;;5.00;99.90;;;4.44;93.25;100802.84;4759850;30;20040;-92
2020/12/09 00:22:26;;;;;;;21.48;13.30;;;5.60;99.90;;;4.33;93.75;100801.31;4746457;30;20043;-91
2020/12/09 00:24:52;;;;;;;21.30;13.77;;;4.90;99.90;;;4.31;93.96;100802.47;4746857;30;20043;-90
2020/12/09 00:27:19;;;;;;;23.50;13.65;;;4.90;99.90;;;4.28;93.67;100800.09;4762852;30;20055;-91
2020/12/09 00:29:45;;;;;;;22.85;12.68;;;4.80;99.90;;;4.28;93.48;100803.66;4744843;30;20070;-93
2020/12/09 00:32:12;;;;;;;21.23;12.48;;;4.80;99.90;;;4.22;93.41;100803.44;4729195;30;20040;-91
2020/12/09 00:34:38;;;;;;;23.85;14.10;;;4.70;99.90;;;4.19;94.05;100798.34;4729193;30;20032;-91
2020/12/09 00:37:07;;;;;;;21.10;12.45;;;4.80;99.90;;;4.16;93.42;100801.38;4748048;30;20034;-92
2020/12/09 00:39:33;;;;;;;22.58;12.88;;;4.50;99.90;;;4.17;93.44;100805.78;4750405;30;20043;-92
2020/12/09 00:42:00;;;;;;;18.95;12.57;;;5.10;99.90;;;4.07;94.08;100799.63;4736767;30;20048;-92
2020/12/09 00:44:26;;;;;;;21.90;13.07;;;4.70;99.90;;;4.09;93.77;100808.41;4729157;30;20032;-92
2020/12/09 00:47:05;;;;;;;25.98;13.93;;;4.90;99.90;;;4.14;93.63;100795.31;4747520;30;20020;-92
2020/12/09 00:49:53;;;;;;;22.58;13.10;;;4.60;99.90;;;3.99;94.64;100812.06;4735149;30;20044;-90
2020/12/09 00:52:19;;;;;;;25.45;13.77;;;4.40;99.90;;;4.04;94.55;100808.06;4745438;30;20040;-90
2020/12/09 00:54:45;;;;;;;22.88;13.68;;;4.80;99.90;;;3.97;95.22;100805.13;4743438;30;20047;-91
2020/12/09 00:57:11;;;;;;;22.25;13.95;;;4.40;99.90;;;3.99;95.77;100797.75;4748073;30;20043;-92
2020/12/09 00:59:37;;;;;;;21.08;13.23;;;4.20;99.90;;;4.04;95.58;100805.34;4768583;30;20050;-92
2020/12/09 01:02:03;;;;;;;25.00;14.35;;;4.80;99.90;;;4.10;95.05;100808.25;4766823;30;20403;-93
2020/12/09 01:04:29;;;;;;;26.45;13.60;;;4.50;99.90;;;4.14;95.08;100809.63;4752010;30;20040;-92
2020/12/09 01:06:55;;;;;;;22.80;13.23;;;4.50;99.90;;;4.17;94.98;100803.09;4766897;30;20042;-90
2020/12/09 01:09:24;;;;;;;23.58;13.82;;;4.50;99.90;;;4.14;94.46;100806.09;4766418;30;20040;-92
2020/12/09 01:11:50;;;;;;;24.98;13.90;;;4.60;99.90;;;4.09;95.15;100808.41;4753928;30;20039;-93
2020/12/09 01:14:16;;;;;;;22.25;13.68;;;4.90;99.90;;;4.08;95.58;100809.41;4757957;30;20114;-92
2020/12/09 01:16:45;;;;;;;28.17;14.55;;;4.50;99.90;;;3.97;95.83;100811.34;4768102;30;20040;-92
2020/12/09 01:19:11;;;;;;;24.05;14.20;;;4.50;99.90;;;3.92;96.05;100813.69;4752320;30;20122;-92
2020/12/09 01:21:37;;;;;;;24.33;14.68;;;4.50;99.90;;;3.99;95.67;100813.91;4767266;30;20032;-93
2020/12/09 01:24:04;;;;;;;25.50;14.57;;;4.50;99.90;;;3.94;96.00;100810.84;4766865;30;20034;-92
2020/12/09 01:26:30;;;;;;;26.23;13.95;;;4.80;99.90;;;3.98;95.83;100822.97;4755545;30;20103;-92
2020/12/09 01:28:56;;;;;;;23.73;14.05;;;4.40;99.90;;;3.98;95.94;100817.59;4759442;30;20069;-92
2020/12/09 01:31:22;;;;;;;19.75;13.43;;;4.40;99.90;;;3.98;95.70;100826.53;4759801;30;20107;-94
2020/12/09 01:33:49;;;;;;;21.33;13.68;;;4.40;99.90;;;3.96;95.46;100827.66;4776506;30;20089;-92
2020/12/09 01:36:24;;;;;;;22.33;13.32;;;4.90;99.90;;;3.86;95.58;100824.25;4775954;30;20052;-93
2020/12/09 01:38:52;;;;;;;25.98;14.95;;;4.40;99.90;;;3.90;96.36;100828.31;4776989;30;20028;-92
2020/12/09 01:46:31;;;;;;;19.90;12.52;;;4.30;99.90;;;3.81;96.15;100838.19;4777104;30;20074;-91
2020/12/09 01:49:00;;;;;;;28.45;15.10;;;4.30;99.90;;;3.81;95.96;100838.19;4777838;30;20063;-91
2020/12/09 01:51:28;;;;;;;24.00;14.20;;;4.30;99.90;;;3.76;96.19;100829.72;4776072;30;20052;-92
2020/12/09 01:53:58;;;;;;;28.75;14.00;;;4.30;99.90;;;3.72;96.65;100835.59;4762403;30;20073;-92
2020/12/09 01:56:25;;;;;;;23.08;14.07;;;4.20;99.90;;;3.70;96.66;100835.75;4762598;30;20036;-93
2020/12/09 01:58:53;;;;;;;22.95;13.32;;;4.20;99.90;;;3.75;96.03;100837.94;4761128;30;20040;-90
2020/12/09 02:01:20;;;;;;;24.45;14.10;;;4.20;99.90;;;3.70;96.34;100838.44;4748306;30;20040;-91
2020/12/09 02:03:48;;;;;;;27.88;14.23;;;4.20;99.90;;;3.62;96.37;100833.81;4753004;30;20040;-90
2020/12/09 02:06:15;;;;;;;23.48;14.50;;;4.10;99.90;;;3.57;96.01;100832.63;4746167;30;20040;-90
2020/12/09 02:08:42;;;;;;;24.55;14.70;;;4.10;99.90;;;3.52;95.94;100834.91;4745856;30;20569;-92
2020/12/09 02:11:08;;;;;;;24.83;15.00;;;4.30;99.90;;;3.48;96.22;100838.94;4771648;30;20035;-91
2020/12/09 02:13:40;;;;;;;27.92;16.25;;;4.00;99.90;;;3.39;96.11;100838.00;4766640;30;20038;-91
2020/12/09 02:16:06;;;;;;;23.08;14.45;;;4.00;99.90;;;3.38;96.32;100838.16;4748160;30;20043;-91
2020/12/09 02:18:32;;;;;;;27.38;15.57;;;3.90;99.90;;;3.29;96.09;100843.44;4737386;30;20036;-91
2020/12/09 02:20:58;;;;;;;25.52;14.02;;;3.80;99.90;;;3.21;96.26;100839.84;4748923;30;20039;-91
2020/12/09 02:23:24;;;;;;;26.42;15.02;;;3.80;99.90;;;3.10;96.03;100838.22;4733054;30;20036;-90
2020/12/09 02:25:50;;;;;;;22.35;14.13;;;3.70;99.90;;;3.00;95.96;100842.81;4762350;30;20035;-90
2020/12/09 02:28:16;;;;;;;25.13;15.18;;;3.60;99.90;;;2.88;95.92;100846.72;4762604;30;20041;-91
2020/12/09 02:30:42;;;;;;;25.27;14.25;;;4.00;99.90;;;2.76;96.12;100839.84;4748007;30;20044;-91
2020/12/09 02:33:08;;;;;;;21.35;12.80;;;3.60;99.90;;;2.70;96.07;100845.84;4755589;30;20027;-91
2020/12/09 02:35:34;;;;;;;28.55;15.50;;;3.30;99.90;;;2.62;96.18;100832.28;4752954;30;20035;-90
2020/12/09 02:38:02;;;;;;;28.95;14.75;;;3.90;99.90;;;2.46;96.34;100828.44;4752893;30;20101;-91
2020/12/09 02:40:27;;;;;;;22.48;13.88;;;3.20;99.90;;;2.47;96.26;100830.13;4752273;30;20065;-90
2020/12/09 02:42:53;;;;;;;27.20;15.05;;;3.10;99.90;;;2.35;96.13;100831.31;4750899;30;20028;-90
2020/12/09 02:45:19;;;;;;;26.25;13.95;;;2.90;99.90;;;2.21;96.88;100830.94;4749640;30;20051;-90
2020/12/09 02:47:45;;;;;;;23.73;12.95;;;3.30;99.90;;;2.08;98.27;100831.25;4732945;30;20032;-90
2020/12/09 02:50:12;;;;;;;30.90;15.63;;;2.80;99.90;;;2.06;97.64;100830.53;4744862;30;20036;-90
2020/12/09 02:52:43;;;;;;;28.33;15.15;;;2.70;99.90;;;2.02;97.55;100830.00;4745083;30;20063;-91
2020/12/09 02:55:09;;;;;;;24.15;13.45;;;2.60;99.90;;;1.96;97.96;100829.72;4745691;30;20048;-91
2020/12/09 02:57:35;;;;;;;22.17;13.75;;;3.10;99.90;;;1.90;97.42;100824.97;4734959;30;20050;-91
2020/12/09 03:00:05;;;;;;;27.67;15.13;;;2.50;99.90;;;1.85;97.20;100821.84;4748562;30;20036;-91
2020/12/09 03:02:34;;;;;;;26.40;15.13;;;2.40;99.90;;;1.81;97.75;100827.50;4749246;30;20032;-90
2020/12/09 03:05:03;;;;;;;28.30;15.60;;;2.50;99.90;;;1.82;97.14;100829.19;4761634;30;20048;-91
2020/12/09 03:07:29;;;;;;;33.88;16.55;;;2.80;99.90;;;1.95;96.52;100822.66;4730833;30;20100;-90
2020/12/09 03:09:57;;;;;;;29.05;16.08;;;2.30;99.90;;;1.97;96.52;100820.69;4745725;30;20043;-90
2020/12/09 03:12:23;;;;;;;27.60;16.58;;;2.30;99.90;;;1.81;97.24;100816.75;4727086;30;20044;-92
2020/12/09 03:14:49;;;;;;;27.58;16.05;;;2.30;99.90;;;1.72;97.42;100823.00;4736023;30;20050;-91
2020/12/09 03:17:15;;;;;;;33.03;16.45;;;2.50;99.90;;;1.64;98.12;100820.19;4736737;30;20111;-92
2020/12/09 03:19:41;;;;;;;28.83;16.17;;;1.80;99.90;;;1.60;98.39;100829.50;4738862;30;20051;-91
2020/12/09 03:22:07;;;;;;;29.80;15.90;;;2.10;99.90;;;1.60;98.37;100824.16;4759872;30;20135;-92
2020/12/09 03:24:33;;;;;;;28.83;16.88;;;2.00;99.90;;;1.57;98.47;100824.47;4761174;30;20040;-93
2020/12/09 03:26:59;;;;;;;26.65;15.18;;;2.70;99.90;;;1.52;98.49;100826.72;4760983;30;20113;-93
2020/12/09 03:29:26;;;;;;;26.50;14.38;;;2.00;99.90;;;1.45;98.72;100839.00;4746001;30;20059;-91
2020/12/09 03:31:55;;;;;;;29.15;15.77;;;2.60;99.90;;;1.38;99.06;100832.50;4731350;30;20043;-92
2020/12/09 03:34:20;;;;;;;28.40;16.20;;;1.90;99.90;;;1.42;99.08;100836.59;4731356;30;20061;-91
2020/12/09 03:36:46;;;;;;;30.40;15.70;;;1.90;99.90;;;1.32;99.04;100833.91;4746623;30;20048;-92
2020/12/09 03:39:13;;;;;;;30.52;17.00;;;1.80;99.90;;;1.35;99.61;100841.69;4741216;30;20481;-92
2020/12/09 03:41:39;;;;;;;25.33;15.70;;;1.80;99.90;;;1.33;99.78;100837.44;4747830;30;20035;-92
2020/12/09 03:44:05;;;;;;;29.85;16.98;;;1.90;99.90;;;1.31;100.00;100842.09;4730918;30;20134;-92
2020/12/09 03:46:32;;;;;;;46.97;18.45;;;2.20;99.90;;;1.26;100.00;100842.50;4733900;30;20135;-91
2020/12/09 03:48:58;;;;;;;26.63;16.40;;;1.70;99.90;;;1.22;100.00;100841.13;4749396;30;20071;-92
2020/12/09 03:51:26;;;;;;;31.65;16.27;;;1.80;99.90;;;1.17;100.00;100843.34;4747095;30;20063;-94
2020/12/09 03:53:52;;;;;;;25.65;15.88;;;1.80;99.90;;;1.16;100.00;100851.53;4704184;30;20040;-94
2020/12/09 03:56:18;;;;;;;27.73;15.93;;;1.90;99.90;;;1.12;100.00;100845.63;4717197;30;20515;-91
2020/12/09 03:58:44;;;;;;;32.35;16.35;;;1.60;99.90;;;1.13;100.00;100846.47;4733328;30;20066;-91
2020/12/09 04:01:10;;;;;;;34.03;16.45;;;2.20;99.90;;;1.15;100.00;100847.16;4732162;30;20387;-92
2020/12/09 04:03:50;;;;;;;27.92;15.95;;;2.10;99.90;;;1.12;100.00;100842.09;4734254;30;20028;-90
2020/12/09 04:06:16;;;;;;;28.35;16.77;;;2.00;99.90;;;1.14;100.00;100837.41;4732475;30;20048;-92
2020/12/09 04:08:42;;;;;;;32.00;17.63;;;1.40;99.90;;;1.15;99.86;100841.78;4731828;30;20028;-91
2020/12/09 04:11:08;;;;;;;28.17;16.42;;;2.10;99.90;;;1.12;100.00;100839.41;4731869;30;20151;-92
2020/12/09 04:13:34;;;;;;;29.13;16.70;;;2.10;99.90;;;0.98;100.00;100833.47;4748505;30;20067;-93
2020/12/09 04:16:03;;;;;;;31.98;16.80;;;1.90;99.90;;;1.03;100.00;100835.72;4731853;30;20496;-92
2020/12/09 04:18:33;;;;;;;29.77;16.42;;;2.00;99.90;;;1.00;100.00;100830.66;4735276;30;20040;-92
2020/12/09 04:21:01;;;;;;;32.70;17.85;;;2.30;99.90;;;1.07;100.00;100831.78;4734475;30;20037;-91
2020/12/09 04:23:27;;;;;;;34.28;17.70;;;1.40;99.90;;;0.97;100.00;100831.78;4735188;30;20111;-91
2020/12/09 04:25:53;;;;;;;31.00;16.83;;;1.40;99.90;;;0.97;100.00;100836.28;4735916;30;20032;-92
2020/12/09 04:28:22;;;;;;;32.15;17.25;;;1.30;99.90;;;0.99;100.00;100837.84;4735692;30;20058;-91
2020/12/09 04:30:51;;;;;;;34.88;17.35;;;1.30;99.90;;;0.94;100.00;100848.13;4720305;30;20462;-93
2020/12/09 04:33:17;;;;;;;31.48;16.80;;;1.90;99.90;;;1.05;100.00;100842.66;4734698;30;20048;-92
2020/12/09 04:35:43;;;;;;;32.90;17.45;;;0.80;99.90;;;1.03;100.00;100841.94;4733694;30;20546;-92
2020/12/09 04:38:11;;;;;;;34.90;17.70;;;1.20;99.90;;;1.04;100.00;100840.94;4733546;30;20047;-92
2020/12/09 04:40:37;;;;;;;35.78;19.10;;;1.70;99.90;;;1.04;100.00;100853.50;4732824;30;20032;-93
2020/12/09 04:43:03;;;;;;;31.23;17.45;;;1.40;99.90;;;0.93;100.00;100859.81;4733487;30;20068;-92
2020/12/09 04:45:32;;;;;;;36.25;16.90;;;1.80;99.90;;;0.97;100.00;100857.72;4737048;30;20120;-91
2020/12/09 04:48:10;;;;;;;34.45;16.95;;;1.20;99.90;;;0.88;100.00;100854.06;4749793;30;20044;-92
2020/12/09 04:50:51;;;;;;;36.17;17.77;;;1.20;99.90;;;0.75;100.00;100850.78;4748256;30;20039;-91
2020/12/09 04:53:31;;;;;;;33.17;17.60;;;1.30;99.90;;;0.71;100.00;100852.88;4766447;30;20084;-92
2020/12/09 04:55:59;;;;;;;33.70;17.75;;;1.60;99.90;;;0.78;100.00;100846.97;4750596;30;20052;-91
2020/12/09 04:58:50;;;;;;;32.85;16.58;;;1.40;99.90;;;0.66;100.00;100854.28;4741849;30;20036;-92
2020/12/09 05:01:17;;;;;;;31.33;16.17;;;1.20;99.90;;;0.61;100.00;100861.88;4772961;30;20052;-92
2020/12/09 05:03:51;;;;;;;31.92;16.52;;;2.20;99.90;;;0.62;100.00;100863.56;4760284;30;20084;-91
2020/12/09 05:06:20;;;;;;;34.90;18.00;;;1.70;99.90;;;0.69;100.00;100859.34;4762609;30;20040;-91
2020/12/09 05:08:55;;;;;;;32.35;15.48;;;1.10;99.90;;;0.64;100.00;100858.91;4772541;30;20040;-92
2020/12/09 05:11:24;;;;;;;30.77;17.27;;;1.70;99.90;;;0.62;100.00;100864.41;4770648;30;20092;-93
2020/12/09 05:13:59;;;;;;;43.33;18.00;;;1.00;99.90;;;0.65;100.00;100857.94;4758668;30;20070;-94
2020/12/09 05:16:26;;;;;;;40.78;18.10;;;1.20;99.90;;;0.55;100.00;100857.91;4756873;30;20087;-92
2020/12/09 05:19:01;;;;;;;36.92;17.75;;;1.10;99.90;;;0.60;100.00;100854.81;4755183;30;20412;-92
2020/12/09 05:21:27;;;;;;;34.53;17.38;;;1.40;99.90;;;0.75;100.00;100864.16;4751628;30;20071;-93
2020/12/09 05:24:01;;;;;;;37.38;18.95;;;1.60;99.90;;;0.84;100.00;100860.66;4752279;30;20039;-93
2020/12/09 05:26:36;;;;;;;37.22;17.33;;;0.90;99.90;;;0.84;100.00;100862.50;4766567;30;20081;-93
2020/12/09 05:29:23;;;;;;;41.25;17.60;;;1.50;99.90;;;0.82;100.00;100865.31;4766863;30;20059;-93
2020/12/09 05:31:58;;;;;;;37.08;17.60;;;1.10;99.90;;;0.86;100.00;100877.44;4772105;30;20036;-91
2020/12/09 05:34:34;;;;;;;50.47;15.73;;;1.20;99.90;;;0.89;100.00;100879.00;4767804;30;20392;-91
2020/12/09 05:37:01;;;;;;;62.70;17.88;;;1.30;99.90;;;0.95;100.00;100875.78;4753623;30;20032;-92
2020/12/09 05:39:28;;;;;;;50.50;15.38;;;1.30;99.90;;;1.08;100.00;100877.22;4753323;30;20070;-90
2020/12/09 05:41:54;;;;;;;62.97;16.48;;;1.70;99.90;;;1.07;100.00;100878.19;4738931;30;20052;-93
2020/12/09 05:44:23;;;;;;;44.80;15.05;;;2.40;99.90;;;1.18;100.00;100887.09;4736878;30;20122;-93
2020/12/09 05:47:26;;;;;;;36.90;14.05;;;1.60;99.90;;;1.15;100.00;100895.41;4737062;30;20028;-93
2020/12/09 05:49:56;;;;;;;48.25;14.70;;;1.40;99.90;;;1.20;100.00;100898.53;4751373;30;20024;-93
2020/12/09 05:52:22;;;;;;;47.85;12.68;;;1.40;99.90;;;1.19;100.00;100907.56;4735707;30;20036;-93
2020/12/09 05:54:51;;;;;;;46.00;11.63;;;1.30;99.90;;;1.06;100.00;100908.66;4736206;30;20090;-93
2020/12/09 05:57:25;;;;;;;49.95;13.32;;;1.20;99.90;;;0.95;100.00;100907.94;4735987;30;20040;-94
2020/12/09 05:59:51;;;;;;;32.33;12.23;;;1.80;99.90;;;1.08;100.00;100917.41;4749657;30;20032;-93
2020/12/09 06:02:28;;;;;;;39.92;12.13;;;1.80;99.90;;;1.11;100.00;100907.41;4737973;30;20032;-92
2020/12/09 06:05:13;;;;;;;26.00;11.82;;;1.20;99.90;;;1.09;100.00;100905.72;4735762;30;20040;-92
2020/12/09 06:07:39;;;;;;;27.88;12.32;;;1.60;99.90;;;0.93;100.00;100905.38;4737526;30;20047;-95
2020/12/09 06:10:16;;;;;;;32.35;11.43;;;1.90;99.90;;;1.06;100.00;100911.34;4756575;30;20036;-90
2020/12/09 06:12:56;;;;;;;32.63;11.88;;;1.20;99.90;;;1.17;100.00;100913.06;4752894;30;20122;-91
2020/12/09 06:15:31;;;;;;;28.13;11.00;;;1.10;99.90;;;1.16;100.00;100916.72;4756520;30;20126;-94
2020/12/09 06:18:11;;;;;;;30.25;10.32;;;1.80;99.90;;;0.99;100.00;100906.69;4772569;30;20043;-93
2020/12/09 06:20:41;;;;;;;40.65;10.80;;;1.10;99.90;;;0.72;100.00;100918.84;4759227;30;20089;-91
2020/12/09 06:23:15;;;;;;;20.00;10.63;;;1.00;99.90;;;0.83;100.00;100909.88;4743034;30;20647;-93
2020/12/09 06:25:53;;;;;;;;;;;1.10;99.90;;;0.75;100.00;100907.03;4771364;30;20038;-93
2020/12/09 06:28:30;;;;;;;26.27;10.77;;;0.80;99.90;;;0.78;100.00;100917.47;4775549;30;20354;-93
2020/12/09 06:31:10;;;;;;;22.38;10.27;;;0.80;99.90;;;0.82;100.00;100918.88;4759721;30;20036;-92
2020/12/09 06:34:12;;;;;;;34.58;11.63;;;1.60;99.90;;;0.80;100.00;100918.16;4761621;30;20028;-93
2020/12/09 06:36:41;;;;;;;38.00;10.07;;;0.70;99.90;;;0.62;100.00;100917.13;4769259;30;20035;-92
2020/12/09 06:39:18;;;;;;;24.15;11.02;;;0.60;99.90;;;0.71;100.00;100913.63;4755715;30;20040;-91
2020/12/09 06:42:07;;;;;;;32.58;11.70;;;1.00;99.90;;;0.70;100.00;100918.13;4771545;30;20059;-93
2020/12/09 06:44:48;;;;;;;33.80;11.50;;;0.60;99.90;;;0.71;100.00;100913.63;4788542;30;20100;-92
2020/12/09 06:47:14;;;;;;;27.40;11.20;;;1.90;99.90;;;0.75;100.00;100912.38;4756892;30;20070;-92
2020/12/09 06:49:43;;;;;;;33.83;11.15;;;0.60;99.90;;;0.63;100.00;100913.47;4755763;30;20028;-93
2020/12/09 06:52:32;;;;;;;22.77;10.50;;;0.60;99.90;;;0.56;100.00;100923.03;4740556;30;20078;-92
2020/12/09 06:54:59;;;;;;;23.70;10.80;;;0.60;99.90;;;0.49;100.00;100924.53;4770783;30;20036;-94
2020/12/09 06:57:35;;;;;;;24.17;10.60;;;0.40;99.90;;;0.50;100.00;100923.56;4773320;30;20032;-92
2020/12/09 07:00:15;;;;;;;31.42;12.10;;;1.50;99.90;;;0.56;100.00;100918.53;4774047;30;20024;-94
2020/12/09 07:02:51;;;;;;;24.02;10.65;;;-0.70;99.90;;;0.61;100.00;100915.44;4769750;30;20543;-92
2020/12/09 07:08:59;;;;;;;15.75;9.85;;;0.50;99.90;;;0.66;100.00;100918.56;4788631;30;20126;-92
2020/12/09 07:11:25;;;;;;;22.92;11.10;;;0.50;99.90;;;0.64;100.00;100928.56;4752154;30;20449;-92
2020/12/09 07:13:51;;;;;;;25.13;11.98;;;1.30;99.90;;;0.57;100.00;100930.06;4737391;30;20036;-92
2020/12/09 07:16:17;;;;;;;21.95;9.85;;;0.90;99.90;;;0.46;100.00;100940.84;4752703;30;20044;-91
2020/12/09 07:18:43;;;;;;;31.13;9.18;;;0.40;99.90;;;0.49;100.00;100933.41;4749108;30;20100;-92
2020/12/09 07:21:10;;;;;;;23.70;10.38;;;0.40;99.90;;;0.65;100.00;100933.78;4750121;30;20040;-90
2020/12/09 07:23:38;;;;;;;31.70;10.90;;;0.40;99.90;;;0.65;100.00;100943.66;4748292;30;20036;-91
2020/12/09 07:26:04;;;;;;;23.27;10.40;;;0.50;99.90;;;0.56;100.00;100934.59;4745960;30;20086;-94
2020/12/09 07:28:33;;;;;;;16.02;9.93;;;0.80;99.90;;;0.61;100.00;100942.22;4734927;30;20036;-91
2020/12/09 07:31:07;;;;;;;17.50;10.23;;;1.10;99.90;;;0.63;100.00;100940.25;4735215;30;20036;-90
2020/12/09 07:33:34;;;;;;;18.13;7.55;;;0.50;99.90;;;0.59;100.00;100938.81;4733384;30;20035;-92
2020/12/09 07:36:10;;;;;;;18.40;10.38;;;0.60;99.90;;;0.52;100.00;100945.69;4765260;30;20035;-91
2020/12/09 07:38:36;;;;;;;20.00;9.18;;;0.80;99.90;;;0.55;100.00;100950.78;4735040;30;20044;-91
2020/12/09 07:41:03;;;;;;;22.55;10.63;;;0.50;99.90;;;0.63;100.00;100948.28;4719911;30;20037;-92
2020/12/09 07:43:29;;;;;;;31.00;11.15;;;0.50;99.90;;;0.66;100.00;100948.03;4733489;30;20032;-92
2020/12/09 07:46:04;;;;;;;35.78;10.88;;;1.30;99.90;;;0.55;100.00;100953.47;4736809;30;20048;-92
2020/12/09 07:48:31;;;;;;;;;;;0.60;99.90;;;0.53;100.00;100950.91;4738428;30;20040;-91
2020/12/09 08:24:33;;;;;;;21.35;10.70;;;1.00;99.90;;;1.12;100.00;100950.16;4782528;29;20051;-90
2020/12/09 08:27:17;;;;;;;27.27;11.25;;;1.00;99.90;;;0.87;100.00;100950.63;4748025;30;20481;-90
2020/12/09 08:29:44;;;;;;;25.23;11.23;;;1.00;99.90;;;0.86;100.00;100946.25;4764223;30;20033;-91
2020/12/09 08:32:12;;;;;;;23.15;12.13;;;0.90;99.90;;;0.92;100.00;100951.91;4747984;30;20500;-91
2020/12/09 08:34:39;;;;;;;26.23;12.20;;;0.90;99.90;;;1.02;100.00;100942.06;4748781;30;20543;-90
2020/12/09 08:37:16;;;;;;;22.92;11.52;;;1.40;99.90;;;1.01;100.00;100940.41;4749212;30;20042;-90
2020/12/09 08:39:42;;;;;;;46.33;12.70;;;0.90;99.90;;;0.91;100.00;100952.91;4734281;30;20051;-89
2020/12/09 08:42:08;;;;;;;23.75;11.70;;;0.90;99.90;;;0.97;100.00;100955.06;4732355;30;20045;-91
2020/12/09 08:44:33;;;;;;;34.72;13.70;;;1.30;99.90;;;0.98;100.00;100959.44;4733136;30;20036;-90
2020/12/09 08:46:59;;;;;;;34.97;14.05;;;1.10;99.90;;;0.90;100.00;100958.41;4718761;30;20037;-90
2020/12/09 08:49:26;;;;;;;26.98;13.38;;;0.90;99.90;;;0.89;100.00;100952.22;4732262;30;20033;-90
2020/12/09 08:51:53;;;;;;;35.60;14.50;;;0.90;99.90;;;1.00;100.00;100954.78;4719310;30;20039;-90
2020/12/09 08:54:21;;;;;;;36.55;14.88;;;0.90;99.90;;;1.09;100.00;100942.38;4734024;30;20032;-91
2020/12/09 09:20:07;;;;;;;35.75;15.52;;;1.20;99.90;;;1.10;100.00;100946.78;4789615;30;20051;-91
2020/12/09 09:22:38;;;;;;;38.15;15.27;;;1.20;99.90;;;1.14;100.00;100950.00;4775024;30;20058;-93
2020/12/09 09:25:04;;;;;;;41.33;16.27;;;1.10;99.90;;;1.32;100.00;100945.69;4760390;30;20020;-91
2020/12/09 09:27:36;;;;;;;41.28;15.30;;;1.80;99.90;;;1.18;100.00;100948.75;4776442;30;20032;-91
2020/12/09 09:30:07;;;;;;;42.38;16.85;;;1.60;99.90;;;1.03;100.00;100959.84;4768551;30;20040;-91
2020/12/09 09:32:33;;;;;;;39.00;17.63;;;1.00;99.90;;;0.83;100.00;100951.88;4770130;30;20059;-92
2020/12/09 09:35:09;;;;;;;38.67;14.77;;;2.20;99.90;;;0.77;100.00;100964.00;4770637;30;20036;-91
2020/12/09 09:37:45;;;;;;;33.90;16.17;;;0.80;99.90;;;0.84;100.00;100965.16;4757944;30;20462;-91
2020/12/09 09:40:12;;;;;;;37.38;16.63;;;0.70;99.90;;;1.09;100.00;100964.69;4771688;30;20074;-91
2020/12/09 09:42:42;;;;;;;36.92;16.77;;;0.90;99.90;;;1.04;100.00;100964.22;4770893;30;20488;-90
2020/12/09 09:45:11;;;;;;;42.22;16.75;;;0.90;99.90;;;1.20;100.00;100965.56;4770800;30;20048;-91
2020/12/09 09:47:40;;;;;;;49.13;17.38;;;1.20;99.90;;;1.04;100.00;100961.56;4757381;30;20031;-90
2020/12/09 09:50:07;;;;;;;42.17;16.60;;;1.40;99.90;;;1.12;100.00;100957.34;4770444;30;20043;-91
2020/12/09 09:52:36;;;;;;;37.88;15.07;;;1.10;99.90;;;1.18;100.00;100957.66;4772254;30;20016;-90
2020/12/09 09:55:04;;;;;;;37.78;17.52;;;1.10;99.90;;;1.20;100.00;100960.19;4773463;30;20043;-90
2020/12/09 09:57:33;;;;;;;41.53;18.42;;;1.20;99.90;;;1.19;100.00;100953.13;4757494;30;20092;-91
2020/12/09 10:00:05;;;;;;;33.25;17.13;;;1.20;99.90;;;1.20;99.81;100957.50;4771488;30;20176;-91
2020/12/09 10:02:33;;;;;;;42.17;18.08;;;1.20;99.90;;;1.26;99.57;100951.59;4756163;30;20480;-92
2020/12/09 10:04:59;;;;;;;38.22;16.60;;;1.10;99.90;;;1.23;99.68;100943.84;4755067;30;20055;-92
2020/12/09 10:07:26;;;;;;;38.13;16.80;;;1.60;99.90;;;1.33;99.03;100950.91;4775177;30;20024;-90
2020/12/09 10:13:34;;;;;;;43.15;17.65;;;1.20;99.90;;;1.39;98.83;100952.19;4776855;30;20086;-91
2020/12/09 10:16:12;;;;;;;37.25;16.42;;;1.20;99.90;;;1.36;98.04;100939.03;4760702;30;20025;-91
2020/12/09 10:18:40;;;;;;;39.00;18.02;;;1.60;99.90;;;1.25;98.57;100936.47;4759903;30;20076;-91
2020/12/09 10:21:12;;;;;;;37.97;17.88;;;1.40;99.90;;;1.41;97.98;100936.81;4774663;30;20113;-92
2020/12/09 10:23:38;;;;;;;31.48;14.75;;;1.30;99.90;;;1.25;97.47;100937.34;4773674;30;20031;-91
2020/12/09 10:29:56;;;;;;;32.28;15.13;;;1.20;99.90;;;1.23;98.06;100930.44;4771299;30;20066;-91
2020/12/09 10:32:32;;;;;;;25.88;13.27;;;1.00;99.90;;;1.20;97.63;100930.69;4772514;30;20044;-90
2020/12/09 10:35:02;;;;;;;31.77;13.55;;;1.30;99.90;;;1.11;97.36;100923.50;4770907;30;20051;-90
2020/12/09 10:37:28;;;;;;;27.63;12.48;;;1.10;99.90;;;1.15;97.25;100930.25;4763772;30;20032;-91
2020/12/09 10:39:55;;;;;;;25.52;12.82;;;1.50;99.90;;;1.23;97.31;100933.97;4762632;30;20036;-91
2020/12/09 10:42:22;;;;;;;22.63;11.52;;;1.00;99.90;;;1.18;97.34;100930.00;4761816;30;20459;-90
2020/12/09 10:44:49;;;;;;;25.92;12.32;;;1.10;99.90;;;1.01;97.68;100929.69;4777297;30;20026;-91
2020/12/09 10:47:16;;;;;;;27.58;12.10;;;1.00;99.90;;;1.19;97.54;100920.97;4759490;30;20110;-91
2020/12/09 10:49:44;;;;;;;25.17;12.50;;;1.00;99.90;;;1.06;97.91;100910.50;4763674;30;20073;-89
2020/12/09 10:52:12;;;;;;;27.52;13.20;;;2.00;99.90;;;1.23;97.69;100912.53;4762334;30;20040;-91
2020/12/09 10:54:41;;;;;;;22.45;11.63;;;1.60;99.90;;;1.24;97.48;100908.81;4758963;30;20039;-91
2020/12/09 10:57:07;;;;;;;21.73;12.45;;;1.30;99.90;;;1.15;97.69;100906.13;4760326;30;20059;-92
2020/12/09 10:59:34;;;;;;;31.00;10.65;;;1.10;99.90;;;1.08;97.87;100909.38;4759254;30;20043;-91
2020/12/09 11:02:00;;;;;;;24.98;12.15;;;1.10;99.90;;;1.24;97.80;100908.00;4758602;30;20067;-90
2020/12/09 11:04:26;;;;;;;22.92;12.77;;;1.50;99.90;;;1.42;97.59;100904.50;4759833;30;20036;-90
2020/12/09 11:06:53;;;;;;;23.17;12.45;;;1.50;99.90;;;1.45;97.43;100906.06;4758559;30;20039;-91
2020/12/09 11:13:48;;;;;;;27.60;13.60;;;1.40;99.90;;;1.26;98.10;100914.06;4788177;30;20043;-90
2020/12/09 11:16:16;;;;;;;27.00;12.25;;;1.20;99.90;;;1.25;98.35;100902.47;4759206;30;20050;-91
2020/12/09 11:18:54;;;;;;;32.28;14.85;;;1.30;99.90;;;1.52;98.35;100896.44;4759399;30;20051;-92
2020/12/09 11:21:32;;;;;;;27.83;14.93;;;1.40;99.90;;;1.59;98.41;100891.34;4743791;30;20059;-89
2020/12/09 11:26:37;;;;;;;31.38;14.50;;;1.50;99.90;;;1.65;98.57;100891.66;4773576;30;20044;-92
2020/12/09 11:29:06;;;;;;;32.30;15.20;;;2.40;99.90;;;1.64;98.44;100884.59;4768164;30;20048;-90
2020/12/09 11:31:38;;;;;;;33.00;15.10;;;1.50;99.90;;;1.64;97.35;100895.31;4767280;30;20032;-90
2020/12/09 11:34:09;;;;;;;30.95;14.20;;;1.30;99.90;;;1.74;98.21;100893.47;4751581;30;20058;-91
2020/12/09 11:36:35;;;;;;;25.20;12.93;;;1.60;99.90;;;1.54;98.35;100888.25;4765278;30;20500;-90
2020/12/09 11:41:37;;;;;;;28.55;14.10;;;1.60;99.90;;;1.85;98.15;100871.00;4923672;24;20055;-89